Time,TemperatureF,DewpointF,PressureIn,WindDirection,WindDirectionDegrees,WindSpeedMPH,WindSpeedGustMPH,Humidity,HourlyPrecipIn,Conditions,Clouds,dailyrainin,SoftwareType,DateUTC
2013-05-27 00:02:00,47.0,-99.9,30.22,North,0,0.0,1.0,-999,-99.99,,,-99.99,,2013-05-27 05:02:00,
2013-05-27 00:12:00,47.0,-99.9,30.22,North,0,0.0,1.0,-999,-99.99,,,-99.99,,2013-05-27 05:12:00,
2013-05-27 00:22:00,47.0,-99.9,30.22,North,0,0.0,1.0,-999,-99.99,,,-99.99,,2013-05-27 05:22:00,
2013-05-27 00:32:00,47.0,-99.9,30.22,North,0,0.0,1.0,-999,-99.99,,,-99.99,,2013-05-27 05:32:00,
2013-05-27 00:40:00,49.0,-99.9,30.23,North,0,0.0,0.0,-999,-99.99,,,-99.99,,2013-05-27 05:40:00,
2013-05-27 01:02:00,49.0,-99.9,30.23,North,0,0.0,0.0,-999,-99.99,,,-99.99,,2013-05-27 06:02:00,
2013-05-27 01:11:00,49.0,-99.9,30.23,North,0,0.0,0.0,-999,-99.99,,,-99.99,,2013-05-27 06:11:00,
2013-05-27 01:22:00,49.0,-99.9,30.23,North,0,0.0,0.0,-999,-99.99,,,-99.99,,2013-05-27 06:22:00,
2013-05-27 01:32:00,49.0,-99.9,30.23,North,0,0.0,0.0,-999,-99.99,,,-99.99,,2013-05-27 06:32:00,
2013-05-27 01:40:00,46.0,-99.9,30.20,SE,140,2.0,3.0,-999,-99.99,,,-99.99,,2013-05-27 06:40:00,
2013-05-27 02:02:00,46.0,-99.9,30.20,SE,140,2.0,3.0,-999,-99.99,,,-99.99,,2013-05-27 07:02:00,
2013-05-27 02:11:00,46.0,-99.9,30.20,SE,140,2.0,3.0,-999,-99.99,,,-99.99,,2013-05-27 07:11:00,
2013-05-27 02:22:00,46.0,-99.9,30.20,SE,140,2.0,3.0,-999,-99.99,,,-99.99,,2013-05-27 07:22:00,
2013-05-27 02:32:00,46.0,-99.9,30.20,SE,140,2.0,3.0,-999,-99.99,,,-99.99,,2013-05-27 07:32:00,
2013-05-27 02:40:00,48.0,-99.9,30.19,ESE,120,5.0,6.0,-999,-99.99,,,-99.99,,2013-05-27 07:40:00,
2013-05-27 03:02:00,48.0,-99.9,30.19,ESE,120,5.0,6.0,-999,-99.99,,,-99.99,,2013-05-27 08:02:00,
2013-05-27 03:12:00,48.0,-99.9,30.19,ESE,120,5.0,6.0,-999,-99.99,,,-99.99,,2013-05-27 08:12:00,
2013-05-27 03:22:00,48.0,-99.9,30.19,ESE,120,5.0,6.0,-999,-99.99,,,-99.99,,2013-05-27 08:22:00,
2013-05-27 03:33:00,48.0,-99.9,30.19,ESE,120,5.0,6.0,-999,-99.99,,,-99.99,,2013-05-27 08:33:00,
2013-05-27 03:40:00,48.0,-99.9,30.19,SE,130,5.0,6.0,-999,-99.99,,,-99.99,,2013-05-27 08:40:00,
2013-05-27 04:02:00,48.0,-99.9,30.19,SE,130,5.0,6.0,-999,-99.99,,,-99.99,,2013-05-27 09:02:00,
2013-05-27 04:11:00,48.0,-99.9,30.19,SE,130,5.0,6.0,-999,-99.99,,,-99.99,,2013-05-27 09:11:00,
2013-05-27 04:22:00,48.0,-99.9,30.19,SE,130,5.0,6.0,-999,-99.99,,,-99.99,,2013-05-27 09:22:00,
2013-05-27 04:33:00,48.0,-99.9,30.19,SE,130,5.0,6.0,-999,-99.99,,,-99.99,,2013-05-27 09:33:00,
2013-05-27 04:40:00,46.0,-99.9,30.18,SE,130,6.0,7.0,-999,-99.99,,,-99.99,,2013-05-27 09:40:00,
2013-05-27 05:03:00,46.0,-99.9,30.18,SE,130,6.0,7.0,-999,-99.99,,,-99.99,,2013-05-27 10:03:00,
2013-05-27 05:12:00,46.0,-99.9,30.18,SE,130,6.0,7.0,-999,-99.99,,,-99.99,,2013-05-27 10:12:00,
2013-05-27 05:23:00,46.0,-99.9,30.18,SE,130,6.0,7.0,-999,-99.99,,,-99.99,,2013-05-27 10:23:00,
2013-05-27 05:32:00,46.0,-99.9,30.18,SE,130,6.0,7.0,-999,-99.99,,,-99.99,,2013-05-27 10:32:00,
2013-05-27 05:40:00,45.0,-99.9,30.19,SE,140,7.0,8.0,-999,-99.99,,,-99.99,,2013-05-27 10:40:00,
2013-05-27 06:02:00,45.0,-99.9,30.19,SE,140,7.0,8.0,-999,-99.99,,,-99.99,,2013-05-27 11:02:00,
2013-05-27 06:12:00,45.0,-99.9,30.19,SE,140,7.0,8.0,-999,-99.99,,,-99.99,,2013-05-27 11:12:00,
2013-05-27 06:22:00,45.0,-99.9,30.19,SE,140,7.0,8.0,-999,-99.99,,,-99.99,,2013-05-27 11:22:00,
2013-05-27 06:32:00,45.0,-99.9,30.19,SE,140,7.0,8.0,-999,-99.99,,,-99.99,,2013-05-27 11:32:00,
2013-05-27 06:40:00,46.0,-99.9,30.17,SE,140,6.0,7.0,-999,-99.99,,,-99.99,,2013-05-27 11:40:00,
2013-05-27 07:02:00,46.0,-99.9,30.17,SE,140,6.0,7.0,-999,-99.99,,,-99.99,,2013-05-27 12:02:00,
2013-05-27 07:12:00,46.0,-99.9,30.17,SE,140,6.0,7.0,-999,-99.99,,,-99.99,,2013-05-27 12:12:00,
2013-05-27 07:22:00,46.0,-99.9,30.17,SE,140,6.0,7.0,-999,-99.99,,,-99.99,,2013-05-27 12:22:00,
2013-05-27 07:32:00,46.0,-99.9,30.17,SE,140,6.0,7.0,-999,-99.99,,,-99.99,,2013-05-27 12:32:00,
2013-05-27 07:40:00,46.0,-99.9,30.18,ESE,120,6.0,7.0,-999,-99.99,,,-99.99,,2013-05-27 12:40:00,
2013-05-27 08:02:00,46.0,-99.9,30.18,ESE,120,6.0,7.0,-999,-99.99,,,-99.99,,2013-05-27 13:02:00,
2013-05-27 08:11:00,46.0,-99.9,30.18,ESE,120,6.0,7.0,-999,-99.99,,,-99.99,,2013-05-27 13:11:00,
2013-05-27 08:22:00,46.0,-99.9,30.18,ESE,120,6.0,7.0,-999,-99.99,,,-99.99,,2013-05-27 13:22:00,
2013-05-27 08:32:00,46.0,-99.9,30.18,ESE,120,6.0,7.0,-999,-99.99,,,-99.99,,2013-05-27 13:32:00,
2013-05-27 08:40:00,47.0,-99.9,30.19,SE,130,6.0,6.0,-999,-99.99,,,-99.99,,2013-05-27 13:40:00,
2013-05-27 09:02:00,47.0,-99.9,30.19,SE,130,6.0,6.0,-999,-99.99,,,-99.99,,2013-05-27 14:02:00,
2013-05-27 09:11:00,47.0,-99.9,30.19,SE,130,6.0,6.0,-999,-99.99,,,-99.99,,2013-05-27 14:11:00,
2013-05-27 09:22:00,47.0,-99.9,30.19,SE,130,6.0,6.0,-999,-99.99,,,-99.99,,2013-05-27 14:22:00,
2013-05-27 09:32:00,47.0,-99.9,30.19,SE,130,6.0,6.0,-999,-99.99,,,-99.99,,2013-05-27 14:32:00,
2013-05-27 09:40:00,49.0,-99.9,30.16,SE,140,3.0,6.0,-999,-99.99,,,-99.99,,2013-05-27 14:40:00,
2013-05-27 10:02:00,49.0,-99.9,30.16,SE,140,3.0,6.0,-999,-99.99,,,-99.99,,2013-05-27 15:02:00,
2013-05-27 10:12:00,49.0,-99.9,30.16,SE,140,3.0,6.0,-999,-99.99,,,-99.99,,2013-05-27 15:12:00,
2013-05-27 10:22:00,49.0,-99.9,30.16,SE,140,3.0,6.0,-999,-99.99,,,-99.99,,2013-05-27 15:22:00,
2013-05-27 10:33:00,49.0,-99.9,30.16,SE,140,3.0,6.0,-999,-99.99,,,-99.99,,2013-05-27 15:33:00,
2013-05-27 10:40:00,50.0,-99.9,30.15,SE,130,3.0,5.0,-999,-99.99,,,-99.99,,2013-05-27 15:40:00,
2013-05-27 11:03:00,50.0,-99.9,30.15,SE,130,3.0,5.0,-999,-99.99,,,-99.99,,2013-05-27 16:03:00,
2013-05-27 11:12:00,50.0,-99.9,30.15,SE,130,3.0,5.0,-999,-99.99,,,-99.99,,2013-05-27 16:12:00,
2013-05-27 11:23:00,50.0,-99.9,30.15,SE,130,3.0,5.0,-999,-99.99,,,-99.99,,2013-05-27 16:23:00,
2013-05-27 11:33:00,50.0,-99.9,30.15,SE,130,3.0,5.0,-999,-99.99,,,-99.99,,2013-05-27 16:33:00,
2013-05-27 11:40:00,50.0,-99.9,30.15,SSE,160,2.0,7.0,-999,-99.99,,,-99.99,,2013-05-27 16:40:00,
2013-05-27 12:02:00,50.0,-99.9,30.15,SSE,160,2.0,7.0,-999,-99.99,,,-99.99,,2013-05-27 17:02:00,
2013-05-27 12:12:00,50.0,-99.9,30.15,SSE,160,2.0,7.0,-999,-99.99,,,-99.99,,2013-05-27 17:12:00,
2013-05-27 12:22:00,50.0,-99.9,30.15,SSE,160,2.0,7.0,-999,-99.99,,,-99.99,,2013-05-27 17:22:00,
2013-05-27 12:32:00,50.0,-99.9,30.15,SSE,160,2.0,7.0,-999,-99.99,,,-99.99,,2013-05-27 17:32:00,
2013-05-27 12:40:00,52.0,-99.9,30.14,East,100,3.0,10.0,-999,-99.99,,,-99.99,,2013-05-27 17:40:00,
2013-05-27 13:02:00,52.0,-99.9,30.14,East,100,3.0,10.0,-999,-99.99,,,-99.99,,2013-05-27 18:02:00,
2013-05-27 13:12:00,52.0,-99.9,30.14,East,100,3.0,10.0,-999,-99.99,,,-99.99,,2013-05-27 18:12:00,
2013-05-27 13:22:00,52.0,-99.9,30.14,East,100,3.0,10.0,-999,-99.99,,,-99.99,,2013-05-27 18:22:00,
2013-05-27 13:32:00,52.0,-99.9,30.14,East,100,3.0,10.0,-999,-99.99,,,-99.99,,2013-05-27 18:32:00,
2013-05-27 13:40:00,51.0,-99.9,30.12,East,80,6.0,10.0,-999,-99.99,,,-99.99,,2013-05-27 18:40:00,
2013-05-27 14:01:00,51.0,-99.9,30.12,East,80,6.0,10.0,-999,-99.99,,,-99.99,,2013-05-27 19:01:00,
2013-05-27 14:11:00,51.0,-99.9,30.12,East,80,6.0,10.0,-999,-99.99,,,-99.99,,2013-05-27 19:11:00,
2013-05-27 14:22:00,51.0,-99.9,30.12,East,80,6.0,10.0,-999,-99.99,,,-99.99,,2013-05-27 19:22:00,
2013-05-27 14:32:00,51.0,-99.9,30.12,East,80,6.0,10.0,-999,-99.99,,,-99.99,,2013-05-27 19:32:00,
2013-05-27 14:40:00,50.0,-99.9,30.08,East,80,13.0,16.0,-999,-99.99,,,-99.99,,2013-05-27 19:40:00,
2013-05-27 15:02:00,50.0,-99.9,30.08,East,80,13.0,16.0,-999,-99.99,,,-99.99,,2013-05-27 20:02:00,
2013-05-27 15:11:00,50.0,-99.9,30.08,East,80,13.0,16.0,-999,-99.99,,,-99.99,,2013-05-27 20:11:00,
2013-05-27 15:22:00,50.0,-99.9,30.08,East,80,13.0,16.0,-999,-99.99,,,-99.99,,2013-05-27 20:22:00,
2013-05-27 15:32:00,50.0,-99.9,30.08,East,80,13.0,16.0,-999,-99.99,,,-99.99,,2013-05-27 20:32:00,
2013-05-27 15:40:00,55.0,-99.9,30.05,ENE,70,10.0,13.0,-999,-99.99,,,-99.99,,2013-05-27 20:40:00,
2013-05-27 16:02:00,55.0,-99.9,30.05,ENE,70,10.0,13.0,-999,-99.99,,,-99.99,,2013-05-27 21:02:00,
2013-05-27 16:12:00,55.0,-99.9,30.05,ENE,70,10.0,13.0,-999,-99.99,,,-99.99,,2013-05-27 21:12:00,
2013-05-27 16:22:00,55.0,-99.9,30.05,ENE,70,10.0,13.0,-999,-99.99,,,-99.99,,2013-05-27 21:22:00,
2013-05-27 16:33:00,55.0,-99.9,30.05,ENE,70,10.0,13.0,-999,-99.99,,,-99.99,,2013-05-27 21:33:00,
2013-05-27 16:40:00,53.0,-99.9,30.03,ESE,120,3.0,8.0,-999,-99.99,,,-99.99,,2013-05-27 21:40:00,
2013-05-27 17:03:00,53.0,-99.9,30.03,ESE,120,3.0,8.0,-999,-99.99,,,-99.99,,2013-05-27 22:03:00,
2013-05-27 17:13:00,53.0,-99.9,30.03,ESE,120,3.0,8.0,-999,-99.99,,,-99.99,,2013-05-27 22:13:00,
2013-05-27 17:23:00,53.0,-99.9,30.03,ESE,120,3.0,8.0,-999,-99.99,,,-99.99,,2013-05-27 22:23:00,
2013-05-27 17:33:00,53.0,-99.9,30.03,ESE,120,3.0,8.0,-999,-99.99,,,-99.99,,2013-05-27 22:33:00,
2013-05-27 17:40:00,55.0,-99.9,30.03,SE,140,8.0,9.0,-999,-99.99,,,-99.99,,2013-05-27 22:40:00,
2013-05-27 18:02:00,55.0,-99.9,30.03,SE,140,8.0,9.0,-999,-99.99,,,-99.99,,2013-05-27 23:02:00,
2013-05-27 18:12:00,55.0,-99.9,30.03,SE,140,8.0,9.0,-999,-99.99,,,-99.99,,2013-05-27 23:12:00,
2013-05-27 18:22:00,55.0,-99.9,30.03,SE,140,8.0,9.0,-999,-99.99,,,-99.99,,2013-05-27 23:22:00,
2013-05-27 18:32:00,55.0,-99.9,30.03,SE,140,8.0,9.0,-999,-99.99,,,-99.99,,2013-05-27 23:32:00,
2013-05-27 18:40:00,54.0,-99.9,30.01,North,0,0.0,2.0,-999,-99.99,,,-99.99,,2013-05-27 23:40:00,
2013-05-27 19:01:00,54.0,-99.9,30.01,North,0,0.0,2.0,-999,-99.99,,,-99.99,,2013-05-28 00:01:00,
2013-05-27 19:12:00,54.0,-99.9,30.01,North,0,0.0,2.0,-999,-99.99,,,-99.99,,2013-05-28 00:12:00,
2013-05-27 19:22:00,54.0,-99.9,30.01,North,0,0.0,2.0,-999,-99.99,,,-99.99,,2013-05-28 00:22:00,
2013-05-27 19:32:00,54.0,-99.9,30.01,North,0,0.0,2.0,-999,-99.99,,,-99.99,,2013-05-28 00:32:00,
2013-05-27 19:40:00,54.0,-99.9,30.00,North,0,0.0,2.0,-999,-99.99,,,-99.99,,2013-05-28 00:40:00,
2013-05-27 20:01:00,54.0,-99.9,30.00,North,0,0.0,2.0,-999,-99.99,,,-99.99,,2013-05-28 01:01:00,
2013-05-27 20:11:00,54.0,-99.9,30.00,North,0,0.0,2.0,-999,-99.99,,,-99.99,,2013-05-28 01:11:00,
2013-05-27 20:22:00,54.0,-99.9,30.00,North,0,0.0,2.0,-999,-99.99,,,-99.99,,2013-05-28 01:22:00,
2013-05-27 20:32:00,54.0,-99.9,30.00,North,0,0.0,2.0,-999,-99.99,,,-99.99,,2013-05-28 01:32:00,
2013-05-27 20:40:00,53.0,-99.9,29.99,North,0,0.0,1.0,-999,-99.99,,,-99.99,,2013-05-28 01:40:00,
2013-05-27 21:02:00,53.0,-99.9,29.99,North,0,0.0,1.0,-999,-99.99,,,-99.99,,2013-05-28 02:02:00,
2013-05-27 21:11:00,53.0,-99.9,29.99,North,0,0.0,1.0,-999,-99.99,,,-99.99,,2013-05-28 02:11:00,
2013-05-27 21:22:00,53.0,-99.9,29.99,North,0,0.0,1.0,-999,-99.99,,,-99.99,,2013-05-28 02:22:00,
2013-05-27 21:32:00,53.0,-99.9,29.99,North,0,0.0,1.0,-999,-99.99,,,-99.99,,2013-05-28 02:32:00,
2013-05-27 21:40:00,53.0,-99.9,29.99,North,0,0.0,1.0,-999,-99.99,,,-99.99,,2013-05-28 02:40:00,
2013-05-27 22:01:00,53.0,-99.9,29.99,North,0,0.0,1.0,-999,-99.99,,,-99.99,,2013-05-28 03:01:00,
2013-05-27 22:11:00,53.0,-99.9,29.99,North,0,0.0,1.0,-999,-99.99,,,-99.99,,2013-05-28 03:11:00,
2013-05-27 22:22:00,53.0,-99.9,29.99,North,0,0.0,1.0,-999,-99.99,,,-99.99,,2013-05-28 03:22:00,
2013-05-27 22:33:00,53.0,-99.9,29.99,North,0,0.0,1.0,-999,-99.99,,,-99.99,,2013-05-28 03:33:00,
2013-05-27 22:40:00,53.0,-99.9,29.96,North,0,0.0,2.0,-999,-99.99,,,-99.99,,2013-05-28 03:40:00,
2013-05-27 23:03:00,53.0,-99.9,29.96,North,0,0.0,2.0,-999,-99.99,,,-99.99,,2013-05-28 04:03:00,
2013-05-27 23:13:00,53.0,-99.9,29.96,North,0,0.0,2.0,-999,-99.99,,,-99.99,,2013-05-28 04:13:00,
2013-05-27 23:23:00,53.0,-99.9,29.96,North,0,0.0,2.0,-999,-99.99,,,-99.99,,2013-05-28 04:23:00,
2013-05-27 23:33:00,53.0,-99.9,29.96,North,0,0.0,2.0,-999,-99.99,,,-99.99,,2013-05-28 04:33:00,
2013-05-27 23:40:00,52.0,-99.9,29.96,SE,140,3.0,6.0,-999,-99.99,,,-99.99,,2013-05-28 04:40:00,